Terminal Aerodrome Forecast
Issued by NWS

Home | Current Version | Previous Version | Text Only | Print | Product List | Glossary On
Versions: 1 2 3 4 5 6 7 8 9 10 11 12 13 14 15 16 17 18 19 20 21 22 23 24 25 26 27 28 29 30 31 32
000
FTUS42 KCAE 291100
TAFOGB
TAF
KOGB 291136Z 2912/3012 VRB03KT 5SM BR BKN007 OVC015
      TEMPO 2912/2914 2SM -RA BR OVC002
     FM291400 VRB04KT 5SM -RA BR BKN007 OVC015
     FM292100 VRB04KT 6SM BR SCT008 OVC015
     FM300300 VRB03KT 4SM BR OVC007
     FM300600 VRB03KT 2SM BR OVC007=

USA.gov is the U.S. government's official web portal to all federal, state and local government web resources and services.